createdAt,value
2022-08-07T00:02:36.883Z,99315.53
2022-08-07T00:04:59.773Z,99308.94
2022-08-07T00:07:27.562Z,99302.25
2022-08-07T00:10:19.359Z,99304.84
2022-08-07T00:12:57.675Z,99305.88
2022-08-07T00:15:25.672Z,99307.16
2022-08-07T00:18:03.126Z,99304.19
2022-08-07T00:20:34.378Z,99304.41
2022-08-07T00:23:02.250Z,99302.38
2022-08-07T00:25:28.927Z,99301.28
2022-08-07T00:28:04.608Z,99301.53
2022-08-07T00:30:31.736Z,99306.50
2022-08-07T00:32:59.879Z,99305.22
2022-08-07T00:35:30.437Z,99304.97
2022-08-07T00:37:58.478Z,99297.03
2022-08-07T00:40:36.414Z,99302.88
2022-08-07T00:43:09.958Z,99307.09
2022-08-07T00:45:41.443Z,99302.91
2022-08-07T00:48:13.069Z,99302.38
2022-08-07T00:50:46.256Z,99301.50
2022-08-07T00:53:20.095Z,99295.88
2022-08-07T00:56:03.327Z,99301.69
2022-08-07T00:58:32.390Z,99300.28
2022-08-07T01:00:59.921Z,99301.44
2022-08-07T01:03:54.579Z,99300.00
2022-08-07T01:06:13.778Z,99298.25
2022-08-07T01:08:51.362Z,99301.03
2022-08-07T01:12:23.335Z,99298.28
2022-08-07T01:14:08.801Z,99299.84
2022-08-07T01:16:36.688Z,99295.97
2022-08-07T01:19:18.230Z,99308.66
2022-08-07T01:21:53.342Z,99303.53
2022-08-07T01:24:22.500Z,99310.59
2022-08-07T01:26:52.753Z,99308.84
2022-08-07T01:29:23.110Z,99304.78
2022-08-07T01:31:50.820Z,99301.31
2022-08-07T01:34:18.601Z,99308.72
2022-08-07T01:36:52.967Z,99307.03
2022-08-07T01:39:39.657Z,99310.31
2022-08-07T01:42:38.097Z,99314.09
2022-08-07T01:44:54.662Z,99309.69
2022-08-07T01:48:29.726Z,99310.09
2022-08-07T01:50:09.032Z,99311.53
2022-08-07T01:52:40.845Z,99309.94
2022-08-07T01:55:22.491Z,99305.63
2022-08-07T01:58:05.901Z,99305.22
2022-08-07T02:00:45.440Z,99306.41
2022-08-07T02:03:25.006Z,99305.03
2022-08-07T02:06:08.937Z,99296.16
2022-08-07T02:08:54.410Z,99308.00
2022-08-07T02:11:30.741Z,99301.44
2022-08-07T02:14:09.721Z,99300.13
2022-08-07T02:16:42.547Z,99302.31
2022-08-07T02:20:04.473Z,99301.13
2022-08-07T02:22:01.697Z,99290.59
2022-08-07T02:24:30.285Z,99297.75
2022-08-07T02:27:01.200Z,99282.78
2022-08-07T02:29:30.645Z,99277.06
2022-08-07T02:31:58.896Z,99282.88
2022-08-07T02:34:27.037Z,99290.22
2022-08-07T02:36:53.571Z,99285.69
2022-08-07T02:39:43.518Z,99278.38
2022-08-07T02:42:10.093Z,99278.28
2022-08-07T02:44:47.577Z,99273.34
2022-08-07T02:47:19.228Z,99278.91
2022-08-07T02:49:58.785Z,99278.22
2022-08-07T02:52:33.071Z,99280.94
2022-08-07T02:55:27.308Z,99273.53
2022-08-07T02:57:59.009Z,99276.31
2022-08-07T03:00:28.489Z,99272.56
2022-08-07T03:02:57.542Z,99276.69
2022-08-07T03:05:24.845Z,99266.59
2022-08-07T03:08:07.340Z,99272.13
2022-08-07T03:10:40.927Z,99274.38
2022-08-07T03:13:19.292Z,99267.72
2022-08-07T03:15:56.318Z,99273.06
2022-08-07T03:18:34.295Z,99264.91
2022-08-07T03:21:08.901Z,99272.88
2022-08-07T03:24:19.406Z,99270.94
2022-08-07T03:26:30.019Z,99274.84
2022-08-07T03:28:58.517Z,99265.31
2022-08-07T03:31:43.377Z,99264.19
2022-08-07T03:34:18.808Z,99266.81
2022-08-07T03:36:51.693Z,99261.91
2022-08-07T03:39:46.155Z,99269.00
2022-08-07T03:42:07.898Z,99269.63
2022-08-07T03:44:36.890Z,99272.88
2022-08-07T03:47:13.287Z,99274.28
2022-08-07T03:49:48.049Z,99274.19
2022-08-07T03:52:27.014Z,99274.19
2022-08-07T03:55:06.965Z,99262.50
2022-08-07T03:58:32.890Z,99268.97
2022-08-07T04:00:30.286Z,99272.88
2022-08-07T04:02:59.370Z,99267.50
2022-08-07T04:05:39.580Z,99270.75
2022-08-07T04:08:11.343Z,99269.09
2022-08-07T04:10:42.391Z,99273.69
2022-08-07T04:13:15.293Z,99279.69
2022-08-07T04:15:43.339Z,99275.19
2022-08-07T04:18:57.462Z,99281.59
2022-08-07T04:21:01.050Z,99279.94
2022-08-07T04:23:43.444Z,99286.50
2022-08-07T04:26:16.929Z,99285.47
2022-08-07T04:28:48.989Z,99284.44
2022-08-07T04:31:19.869Z,99279.88
2022-08-07T04:33:47.379Z,99282.75
2022-08-07T04:36:22.809Z,99280.34
2022-08-07T04:38:53.232Z,99286.09
2022-08-07T04:41:20.411Z,99293.81
2022-08-07T04:44:10.046Z,99296.44
2022-08-07T04:47:03.845Z,99293.31
2022-08-07T04:50:03.631Z,99294.19
2022-08-07T04:52:51.166Z,99299.69
2022-08-07T04:58:10.347Z,99291.22
2022-08-07T04:59:16.715Z,99302.59
2022-08-07T05:01:30.407Z,99303.69
2022-08-07T05:04:07.419Z,99304.31
2022-08-07T05:06:51.222Z,99301.94
2022-08-07T05:09:45.872Z,99303.78
2022-08-07T05:12:27.044Z,99306.84
2022-08-07T05:15:21.609Z,99300.63
2022-08-07T05:17:57.455Z,99304.63
2022-08-07T05:20:33.615Z,99299.91
2022-08-07T05:23:15.861Z,99297.13
2022-08-07T05:26:10.567Z,99296.25
2022-08-07T05:28:33.365Z,99304.06
2022-08-07T05:31:01.398Z,99303.09
2022-08-07T05:33:31.261Z,99297.34
2022-08-07T05:36:04.345Z,99308.53
2022-08-07T05:39:01.045Z,99297.09
2022-08-07T05:41:21.767Z,99302.84
2022-08-07T05:44:12.359Z,99297.81
2022-08-07T05:46:39.563Z,99294.13
2022-08-07T05:49:12.446Z,99303.91
2022-08-07T05:51:46.177Z,99304.66
2022-08-07T05:54:30.256Z,99301.63
2022-08-07T05:56:59.143Z,99306.25
2022-08-07T05:59:27.314Z,99305.41
2022-08-07T06:01:54.746Z,99308.78
2022-08-07T06:04:26.378Z,99308.28
2022-08-07T06:07:03.711Z,99308.41
2022-08-07T06:10:04.437Z,99300.09
2022-08-07T06:12:21.074Z,99302.28
2022-08-07T06:15:05.341Z,99306.44
2022-08-07T06:17:38.019Z,99306.56
2022-08-07T06:20:12.557Z,99305.66
2022-08-07T06:23:02.090Z,99296.19
2022-08-07T06:25:40.749Z,99289.78
2022-08-07T06:28:27.414Z,99285.44
2022-08-07T06:30:55.711Z,99291.72
2022-08-07T06:33:22.945Z,99287.25
2022-08-07T06:36:11.793Z,99281.78
2022-08-07T06:38:36.643Z,99285.44
2022-08-07T06:41:09.783Z,99288.94
2022-08-07T06:43:46.128Z,99290.94
2022-08-07T06:46:14.675Z,99284.50
2022-08-07T06:48:47.195Z,99286.19
2022-08-07T06:51:24.591Z,99287.41
2022-08-07T06:55:31.569Z,99289.97
2022-08-07T06:56:50.810Z,99288.19
2022-08-07T07:00:12.145Z,99286.84
2022-08-07T07:02:26.954Z,99289.00
2022-08-07T07:05:03.389Z,99295.84
2022-08-07T07:07:58.526Z,99292.56
2022-08-07T07:10:27.016Z,99285.19
2022-08-07T07:12:58.587Z,99286.38
2022-08-07T07:15:35.803Z,99281.19
2022-08-07T07:18:11.476Z,99279.25
2022-08-07T07:20:55.742Z,99283.56
2022-08-07T07:24:06.369Z,99282.84
2022-08-07T07:26:35.579Z,99282.34
2022-08-07T07:29:39.078Z,99276.94
2022-08-07T07:31:56.045Z,99270.34
2022-08-07T07:34:30.810Z,99266.91
2022-08-07T07:37:14.985Z,99273.28
2022-08-07T07:39:55.322Z,99270.88
2022-08-07T07:42:25.775Z,99267.91
2022-08-07T07:45:04.072Z,99262.81
2022-08-07T07:47:51.704Z,99257.84
2022-08-07T07:50:35.165Z,99259.56
2022-08-07T07:53:20.388Z,99257.19
2022-08-07T07:55:57.468Z,99254.00
2022-08-07T07:58:30.358Z,99257.38
2022-08-07T08:02:04.099Z,99250.06
2022-08-07T08:04:10.122Z,99244.34
2022-08-07T08:06:40.658Z,99245.44
2022-08-07T08:09:20.761Z,99255.16
2022-08-07T08:12:02.374Z,99246.72
2022-08-07T08:14:36.139Z,99238.94
2022-08-07T08:17:55.934Z,99236.47
2022-08-07T08:20:17.976Z,99247.25
2022-08-07T08:23:02.331Z,99243.88
2022-08-07T08:25:54.547Z,99242.94
2022-08-07T08:28:37.922Z,99233.66
2022-08-07T08:31:15.774Z,99226.59
2022-08-07T08:33:49.837Z,99224.88
2022-08-07T08:36:30.018Z,99233.59
2022-08-07T08:39:02.167Z,99236.06
2022-08-07T08:41:57.485Z,99231.91
2022-08-07T08:44:44.283Z,99240.06
2022-08-07T08:47:25.017Z,99236.47
2022-08-07T08:50:05.689Z,99231.41
2022-08-07T08:52:51.527Z,99232.81
2022-08-07T08:55:54.435Z,99237.72
2022-08-07T08:58:40.620Z,99222.78
2022-08-07T09:01:43.601Z,99228.34
2022-08-07T09:04:25.922Z,99213.53
2022-08-07T09:07:06.057Z,99220.41
2022-08-07T09:09:44.630Z,99224.75
2022-08-07T09:12:41.185Z,99219.53
2022-08-07T09:16:21.764Z,99216.97
2022-08-07T09:18:41.500Z,99209.03
2022-08-07T09:22:23.102Z,99194.38
2022-08-07T09:24:59.285Z,99204.41
2022-08-07T09:27:54.595Z,99204.91
2022-08-07T09:30:46.407Z,99204.59
2022-08-07T09:33:59.053Z,99201.38
2022-08-07T09:36:35.693Z,99186.13
2022-08-07T09:39:52.641Z,99187.03
2022-08-07T09:42:33.584Z,99194.56
2022-08-07T09:47:42.457Z,99191.88
2022-08-07T09:48:20.206Z,99192.13
2022-08-07T09:51:25.951Z,99190.81
2022-08-07T09:54:02.790Z,99187.84
2022-08-07T09:57:07.328Z,99180.16
2022-08-07T10:00:14.702Z,99177.69
2022-08-07T10:03:07.920Z,99171.78
2022-08-07T10:05:59.651Z,99158.56
2022-08-07T10:08:44.203Z,99172.63
2022-08-07T10:12:01.963Z,99160.38
2022-08-07T10:14:54.243Z,99148.63
2022-08-07T10:18:01.475Z,99154.44
2022-08-07T10:20:54.606Z,99156.88
2022-08-07T10:24:06.094Z,99148.31
2022-08-07T10:26:41.720Z,99133.19
2022-08-07T10:29:25.763Z,99130.28
2022-08-07T10:32:36.830Z,99135.56
2022-08-07T10:35:20.710Z,99127.22
2022-08-07T10:38:15.524Z,99134.31
2022-08-07T10:41:05.540Z,99124.25
2022-08-07T10:44:02.411Z,99133.69
2022-08-07T10:46:59.820Z,99123.06
2022-08-07T10:49:49.843Z,99106.88
2022-08-07T10:52:42.631Z,99113.41
2022-08-07T10:55:36.980Z,99111.78
2022-08-07T10:58:33.210Z,99105.75
2022-08-07T11:01:35.761Z,99101.44
2022-08-07T11:04:37.554Z,99098.59
2022-08-07T11:07:56.175Z,99087.63
2022-08-07T11:10:16.182Z,99081.53
2022-08-07T11:13:02.104Z,99088.78
2022-08-07T11:15:38.580Z,99079.19
2022-08-07T11:18:29.323Z,99085.41
2022-08-07T11:21:14.934Z,99074.06
2022-08-07T11:24:12.141Z,99072.78
2022-08-07T11:26:55.796Z,99072.47
2022-08-07T11:29:40.928Z,99067.00
2022-08-07T11:32:32.013Z,99074.06
2022-08-07T11:35:09.319Z,99057.88
2022-08-07T11:38:17.586Z,99063.94
2022-08-07T11:40:59.528Z,99063.09
2022-08-07T11:43:54.966Z,99058.56
2022-08-07T11:46:50.012Z,99057.28
2022-08-07T11:49:50.828Z,99054.94
2022-08-07T11:52:42.386Z,99041.28
2022-08-07T11:56:09.115Z,99044.78
2022-08-07T11:58:54.665Z,99034.56
2022-08-07T12:01:22.196Z,99032.69
2022-08-07T12:04:10.431Z,99039.53
2022-08-07T12:07:09.134Z,99034.13
2022-08-07T12:10:10.471Z,99027.41
2022-08-07T12:12:56.984Z,99032.19
2022-08-07T12:15:46.431Z,99026.94
2022-08-07T12:18:45.466Z,99026.81
2022-08-07T12:21:55.106Z,99025.72
2022-08-07T12:24:40.299Z,99022.00
2022-08-07T12:27:15.792Z,99021.00
2022-08-07T12:29:52.832Z,99019.44
2022-08-07T12:32:28.447Z,99014.69
2022-08-07T12:35:02.284Z,99012.81
2022-08-07T12:38:11.417Z,99017.16
2022-08-07T12:40:46.345Z,99021.97
2022-08-07T12:44:02.254Z,99002.94
2022-08-07T12:46:32.703Z,99012.97
2022-08-07T12:49:25.435Z,99008.13
2022-08-07T12:52:17.891Z,99000.22
2022-08-07T12:55:03.950Z,99003.06
2022-08-07T12:58:00.397Z,98999.94
2022-08-07T13:00:36.041Z,98992.47
2022-08-07T13:04:02.150Z,98993.38
2022-08-07T13:06:37.300Z,98988.00
2022-08-07T13:10:21.958Z,98978.56
2022-08-07T13:12:56.520Z,98982.72
2022-08-07T13:15:42.652Z,98976.81
2022-08-07T13:18:31.416Z,98976.13
2022-08-07T13:21:37.291Z,98974.59
2022-08-07T13:24:20.599Z,98965.22
2022-08-07T13:27:21.234Z,98967.44
2022-08-07T13:29:56.115Z,98959.88
2022-08-07T13:32:50.022Z,98958.69
2022-08-07T13:35:59.547Z,98950.66
2022-08-07T13:38:35.045Z,98946.53
2022-08-07T13:41:20.586Z,98951.16
2022-08-07T13:43:52.783Z,98945.00
2022-08-07T13:46:32.821Z,98953.31
2022-08-07T13:49:01.917Z,98946.66
2022-08-07T13:52:05.089Z,98951.19
2022-08-07T13:54:23.783Z,98937.59
2022-08-07T13:56:59.520Z,98935.41
2022-08-07T13:59:31.303Z,98942.44
2022-08-07T14:02:08.625Z,98934.59
2022-08-07T14:04:54.730Z,98926.84
2022-08-07T14:07:27.367Z,98925.06
2022-08-07T14:10:02.375Z,98931.09
2022-08-07T14:12:54.944Z,98923.44
2022-08-07T14:15:36.040Z,98918.88
2022-08-07T14:18:29.252Z,98909.50
2022-08-07T14:22:00.950Z,98910.13
2022-08-07T14:24:04.941Z,98910.28
2022-08-07T14:26:58.697Z,98908.19
2022-08-07T14:30:06.135Z,98913.78
2022-08-07T14:32:26.674Z,98915.56
2022-08-07T14:34:54.926Z,98906.59
2022-08-07T14:37:36.319Z,98900.03
2022-08-07T14:40:17.894Z,98896.06
2022-08-07T14:43:58.429Z,98909.06
2022-08-07T14:46:04.479Z,98894.84
2022-08-07T14:48:35.650Z,98897.44
2022-08-07T14:51:16.270Z,98904.13
2022-08-07T14:56:33.080Z,98902.44
2022-08-07T14:59:13.700Z,98888.34
2022-08-07T15:01:58.172Z,98896.47
2022-08-07T15:04:25.902Z,98903.69
2022-08-07T15:06:57.044Z,98896.03
2022-08-07T15:09:58.836Z,98887.44
2022-08-07T15:13:06.393Z,98886.63
2022-08-07T15:20:56.181Z,98882.03
2022-08-07T15:25:12.791Z,98890.50
2022-08-07T15:26:22.351Z,98878.72
2022-08-07T15:28:59.507Z,98874.09
2022-08-07T15:34:50.693Z,98875.69
2022-08-07T15:37:28.795Z,98877.50
2022-08-07T15:40:33.723Z,98871.69
2022-08-07T15:43:33.211Z,98872.13
2022-08-07T15:46:37.267Z,98876.72
2022-08-07T15:49:15.255Z,98876.38
2022-08-07T15:54:30.818Z,98862.09
2022-08-07T15:57:03.337Z,98858.38
2022-08-07T15:59:39.486Z,98862.81
2022-08-07T16:02:23.487Z,98853.75
2022-08-07T16:04:57.818Z,98855.97
2022-08-07T16:08:28.921Z,98854.53
2022-08-07T16:10:20.977Z,98853.53
2022-08-07T16:13:00.958Z,98847.63
2022-08-07T16:15:57.247Z,98848.25
2022-08-07T16:18:49.544Z,98845.72
2022-08-07T16:22:04.183Z,98833.84
2022-08-07T16:24:52.639Z,98835.94
2022-08-07T16:27:39.788Z,98840.03
2022-08-07T16:30:32.040Z,98840.19
2022-08-07T16:34:02.860Z,98837.78
2022-08-07T16:36:20.716Z,98838.34
2022-08-07T16:39:40.169Z,98841.34
2022-08-07T16:42:27.164Z,98839.09
2022-08-07T16:46:21.238Z,98846.91
2022-08-07T16:49:04.352Z,98832.34
2022-08-07T16:52:11.244Z,98831.94
2022-08-07T16:55:08.186Z,98833.50
2022-08-07T16:58:15.905Z,98834.94
2022-08-07T17:01:15.945Z,98826.66
2022-08-07T17:04:00.170Z,98835.22
2022-08-07T17:06:44.574Z,98832.13
2022-08-07T17:10:06.852Z,98829.38
2022-08-07T17:12:36.692Z,98834.16
2022-08-07T17:15:16.799Z,98830.22
2022-08-07T17:17:47.359Z,98837.53
2022-08-07T17:20:38.020Z,98831.69
2022-08-07T17:23:22.873Z,98837.00
2022-08-07T17:26:22.824Z,98833.56
2022-08-07T17:30:12.608Z,98844.53
2022-08-07T17:32:29.990Z,98842.66
2022-08-07T17:35:49.664Z,98844.22
2022-08-07T17:38:33.414Z,98850.44
2022-08-07T17:42:02.409Z,98849.84
2022-08-07T17:44:46.920Z,98845.38
2022-08-07T17:47:45.994Z,98846.59
2022-08-07T17:50:30.159Z,98847.72
2022-08-07T17:53:06.115Z,98844.06
2022-08-07T17:55:54.941Z,98857.00
2022-08-07T17:58:51.018Z,98853.16
2022-08-07T18:01:28.944Z,98858.28
2022-08-07T18:04:24.649Z,98855.94
2022-08-07T18:07:24.696Z,98853.69
2022-08-07T18:10:32.212Z,98858.00
2022-08-07T18:12:59.772Z,98857.53
2022-08-07T18:15:33.182Z,98859.50
2022-08-07T18:18:47.544Z,98861.88
2022-08-07T18:21:40.274Z,98853.34
2022-08-07T18:24:33.389Z,98863.50
2022-08-07T18:27:25.597Z,98871.97
2022-08-07T18:30:32.897Z,98869.81
2022-08-07T18:33:25.508Z,98866.38
2022-08-07T18:36:05.871Z,98873.78
2022-08-07T18:39:01.262Z,98879.81
2022-08-07T18:41:49.003Z,98872.88
2022-08-07T18:45:39.961Z,98879.63
2022-08-07T18:48:01.554Z,98883.13
2022-08-07T18:50:44.079Z,98887.53
2022-08-07T18:53:16.414Z,98891.63
2022-08-07T18:55:55.719Z,98894.13
2022-08-07T18:58:54.066Z,98890.19
2022-08-07T19:02:18.384Z,98885.63
2022-08-07T19:04:38.834Z,98890.03
2022-08-07T19:07:34.448Z,98897.88
2022-08-07T19:10:18.177Z,98892.84
2022-08-07T19:12:59.449Z,98904.44
2022-08-07T19:16:05.929Z,98910.88
2022-08-07T19:18:49.480Z,98917.00
2022-08-07T19:21:53.499Z,98910.84
2022-08-07T19:24:34.217Z,98920.03
2022-08-07T19:29:02.892Z,98919.91
2022-08-07T19:31:05.964Z,98933.59
2022-08-07T19:32:49.412Z,98927.47
2022-08-07T19:35:26.835Z,98931.50
2022-08-07T19:37:59.907Z,98935.53
2022-08-07T19:40:31.861Z,98943.19
2022-08-07T19:43:02.403Z,98960.75
2022-08-07T19:46:07.593Z,98945.34
2022-08-07T19:48:25.585Z,98949.78
2022-08-07T19:50:54.424Z,98957.00
2022-08-07T19:54:32.447Z,98955.97
2022-08-07T19:57:56.709Z,98958.19
2022-08-07T19:59:06.942Z,98956.34
2022-08-07T20:01:56.116Z,98967.31
2022-08-07T20:04:37.553Z,98971.69
2022-08-07T20:07:08.928Z,98961.13
2022-08-07T20:10:37.166Z,98964.53
2022-08-07T20:12:38.167Z,98958.94
2022-08-07T20:15:11.742Z,98961.81
2022-08-07T20:18:01.643Z,98964.03
2022-08-07T20:20:32.015Z,98968.63
2022-08-07T20:23:11.050Z,98971.69
2022-08-07T20:25:54.125Z,98963.91
2022-08-07T20:28:29.324Z,98970.22
2022-08-07T20:30:58.226Z,98969.81
2022-08-07T20:33:37.962Z,98966.06
2022-08-07T20:36:09.932Z,98967.66
2022-08-07T20:38:53.273Z,98968.00
2022-08-07T20:41:28.764Z,98967.13
2022-08-07T20:44:19.761Z,98972.03
2022-08-07T20:46:48.340Z,98977.72
2022-08-07T20:50:00.834Z,98974.69
2022-08-07T20:52:30.052Z,98971.72
2022-08-07T20:55:11.467Z,98970.22
2022-08-07T20:58:12.305Z,98978.97
2022-08-07T21:01:00.483Z,98976.91
2022-08-07T21:03:27.901Z,98981.84
2022-08-07T21:06:21.443Z,98973.44
2022-08-07T21:09:01.044Z,98976.31
2022-08-07T21:11:46.100Z,98977.06
2022-08-07T21:14:31.811Z,98975.47
2022-08-07T21:18:00.820Z,98975.78
2022-08-07T21:20:05.323Z,98984.06
2022-08-07T21:22:44.729Z,98985.41
2022-08-07T21:25:23.628Z,98989.28
2022-08-07T21:28:18.959Z,98984.44
2022-08-07T21:31:04.984Z,98984.44
2022-08-07T21:33:46.479Z,98997.00
2022-08-07T21:36:38.505Z,98998.50
2022-08-07T21:39:51.830Z,98992.69
2022-08-07T21:42:45.973Z,98998.00
2022-08-07T21:46:03.808Z,98990.47
2022-08-07T21:48:26.889Z,98988.00
2022-08-07T21:50:59.484Z,98992.75
2022-08-07T21:53:52.392Z,98990.41
2022-08-07T21:56:47.221Z,99000.78
2022-08-07T22:00:04.073Z,99002.66
2022-08-07T22:02:53.874Z,99002.72
2022-08-07T22:05:44.791Z,99003.25
2022-08-07T22:08:18.958Z,99004.22
2022-08-07T22:10:54.615Z,98994.97
2022-08-07T22:13:24.530Z,99002.44
2022-08-07T22:16:45.609Z,99010.09
2022-08-07T22:19:36.933Z,99004.78
2022-08-07T22:22:28.508Z,99009.81
2022-08-07T22:25:07.582Z,99012.69
2022-08-07T22:28:07.570Z,99007.06
2022-08-07T22:30:39.789Z,99009.66
2022-08-07T22:33:12.309Z,99007.34
2022-08-07T22:36:09.533Z,99020.66
2022-08-07T22:38:53.980Z,99019.53
2022-08-07T22:42:03.016Z,99024.47
2022-08-07T22:44:35.618Z,99019.94
2022-08-07T22:47:28.398Z,99020.84
2022-08-07T22:50:29.119Z,99017.72
2022-08-07T22:54:04.985Z,99029.38
2022-08-07T22:56:13.050Z,99037.06
2022-08-07T22:58:51.721Z,99039.09
2022-08-07T23:01:30.495Z,99036.88
2022-08-07T23:04:30.154Z,99041.38
2022-08-07T23:07:39.787Z,99039.59
2022-08-07T23:10:36.363Z,99048.41
2022-08-07T23:13:29.044Z,99043.91
2022-08-07T23:16:44.783Z,99043.63
2022-08-07T23:19:59.950Z,99049.50
2022-08-07T23:22:32.629Z,99050.53
2022-08-07T23:25:14.692Z,99044.22
2022-08-07T23:28:21.191Z,99049.47
2022-08-07T23:31:05.589Z,99042.88
2022-08-07T23:34:34.556Z,99041.53
2022-08-07T23:37:19.270Z,99052.44
2022-08-07T23:40:10.482Z,99049.78
2022-08-07T23:43:01.482Z,99046.13
2022-08-07T23:46:02.585Z,99053.88
2022-08-07T23:48:59.869Z,99054.94
2022-08-07T23:53:01.447Z,99043.25
2022-08-07T23:54:52.834Z,99048.03
2022-08-07T23:57:34.903Z,99053.56
